Latest  Newer  Older  Last 2 hours animation  Current image  Latest image 
Rain/snow radar  Infrared sat images 
Real-time lightning map

All time is UTC (add 2 hours to UTC in wintertime, 3 hours to UTC in DST for Latvia local time)

2018/02/24 19:50 EVRA 241950Z 05008KT 9999 FEW012 SCT015 M12/M15 Q1033 R36/490195 NOSIG
2018/02/24 19:50 EVLA 241950Z AUTO 02002KT 9999 NCD M12/M13 Q1034
2018/02/24 19:50 EVVA 241950Z AUTO 02005KT CAVOK M11/M13 Q1035
2018/02/24 19:50 EYKA 241950Z 35004KT CAVOK M14/M17 Q1031 R08/090095
2018/02/24 19:50 EYPA 241950Z AUTO 04004KT 9999 NCD M14/M15 Q1034
2018/02/24 19:50 EYSA 241950Z 01007KT 9999 -SN OVC018 M13/M14 Q1032 R32R/29//95 R32L/490191 WHT NOSIG
2018/02/24 19:50 EYVI 241950Z 03011KT 9999 -SN BKN022 M13/M16 Q1029 R01/1///95 NOSIG
2018/02/24 08:50 EEKA 240850Z 03007KT 360V060 3300 +SN BKN015 M08/M11 Q1036
2018/02/24 19:50 EEKE 241950Z AUTO 04007KT 9999NDV NCD M14/M16 Q1036
2018/02/24 13:50 EEPU 241350Z 35006KT 9999 FEW016 M09/M14 Q1034
2018/02/24 19:50 EETN 241950Z 05008KT 9999 -SN BKN017 M12/M15 Q1036 R08/410295 NOSIG
2018/02/24 19:50 EETU 241950Z AUTO 03004KT 9999 SG NCD M17/M20 Q1034 RESHUP
   RIGA AIRPORT     EVRA               56 55N  023 58E   10   X     T          6 LV
   LIEPAJA INTL     EVLA        26406  56 31N  021 06E    4   X                8 LV
   VENTPILS         EVVA               57 21N  021 33E    6   X                8 LV
   KAUNAS           EYKA               54 54N  023 55E   77   X     T          6 LT
   PALANGA INTL     EYPA               55 55N  021 03E   10   X                6 LT
   SIAULIAI INTL    EYSA               55 54N  023 24E  135   X     T          6 LT
   VILNIUS INTL     EYVI        26730  54 38N  025 17E  197   X     T          6 LT
   KARDLA           EEKA        26116  58 59N  022 50E    4   X                8 EE
   KURESSAARE       EEKE               58 14N  022 31E    4   X                8 EE
   PARNU            EEPU               58 25N  024 28E   14   X                8 EE
   TALLINN          EETN        26038  59 24N  024 49E   40   X     T          8 EE
   TARTU            EETU               58 19N  026 41E   67   X                8 EE

cloud coverage image from sat24.com and METAR data from weather.noaa.gov